createdAt,value
2023-04-18T00:01:55.080Z,12.35
2023-04-18T00:04:24.456Z,11.45
2023-04-18T00:06:51.417Z,12.00
2023-04-18T00:09:18.319Z,9.68
2023-04-18T00:11:45.390Z,10.48
2023-04-18T00:14:12.495Z,11.80
2023-04-18T00:16:39.425Z,10.43
2023-04-18T00:19:06.590Z,13.50
2023-04-18T00:21:33.309Z,9.65
2023-04-18T00:24:00.219Z,11.38
2023-04-18T00:26:28.167Z,10.82
2023-04-18T00:28:57.035Z,10.93
2023-04-18T00:31:24.116Z,11.13
2023-04-18T00:33:51.023Z,10.52
2023-04-18T00:36:17.756Z,14.50
2023-04-18T00:38:45.062Z,11.25
2023-04-18T00:41:11.803Z,10.57
2023-04-18T00:43:38.551Z,10.93
2023-04-18T00:46:06.261Z,11.65
2023-04-18T00:48:33.945Z,12.95
2023-04-18T00:51:00.856Z,12.43
2023-04-18T00:53:28.497Z,13.63
2023-04-18T00:55:55.716Z,10.82
2023-04-18T00:58:23.325Z,15.88
2023-04-18T01:00:52.116Z,14.05
2023-04-18T01:03:19.293Z,18.48
2023-04-18T01:05:46.537Z,11.02
2023-04-18T01:08:13.608Z,14.85
2023-04-18T01:10:40.582Z,11.30
2023-04-18T01:13:16.533Z,13.82
2023-04-18T01:15:44.522Z,9.70
2023-04-18T01:18:13.086Z,11.27
2023-04-18T01:20:41.530Z,13.80
2023-04-18T01:23:10.408Z,11.48
2023-04-18T01:25:37.358Z,12.70
2023-04-18T01:28:04.625Z,13.90
2023-04-18T01:30:31.895Z,12.18
2023-04-18T01:33:00.009Z,11.07
2023-04-18T01:35:27.044Z,15.32
2023-04-18T01:37:57.227Z,10.85
2023-04-18T01:40:24.608Z,14.52
2023-04-18T01:42:51.435Z,13.88
2023-04-18T01:45:19.968Z,14.80
2023-04-18T01:47:47.176Z,13.63
2023-04-18T01:50:14.385Z,12.55
2023-04-18T01:52:42.815Z,12.32
2023-04-18T01:55:10.180Z,14.50
2023-04-18T01:57:36.895Z,12.75
2023-04-18T02:00:08.039Z,14.18
2023-04-18T02:02:52.816Z,16.95
2023-04-18T02:05:21.350Z,14.25
2023-04-18T02:07:50.074Z,13.77
2023-04-18T02:10:18.493Z,16.20
2023-04-18T02:12:45.433Z,16.90
2023-04-18T02:15:12.151Z,18.05
2023-04-18T02:17:38.934Z,16.42
2023-04-18T02:20:07.975Z,21.35
2023-04-18T02:22:36.274Z,15.80
2023-04-18T02:25:03.126Z,13.45
2023-04-18T02:27:30.043Z,16.50
2023-04-18T02:29:58.472Z,16.65
2023-04-18T02:32:25.437Z,13.80
2023-04-18T02:34:52.205Z,16.30
2023-04-18T02:37:18.861Z,15.45
2023-04-18T02:39:45.681Z,12.70
2023-04-18T02:42:12.478Z,18.08
2023-04-18T02:44:39.136Z,13.68
2023-04-18T02:47:05.949Z,13.52
2023-04-18T02:49:35.299Z,17.30
2023-04-18T02:52:02.099Z,15.52
2023-04-18T02:54:28.906Z,15.65
2023-04-18T02:57:08.967Z,14.80
2023-04-18T02:59:54.614Z,15.88
2023-04-18T03:02:21.352Z,13.27
2023-04-18T03:04:53.743Z,12.57
2023-04-18T03:07:20.523Z,15.45
2023-04-18T03:09:49.349Z,16.40
2023-04-18T03:12:24.449Z,16.15
2023-04-18T03:14:51.964Z,25.98
2023-04-18T03:17:19.903Z,13.65
2023-04-18T03:19:48.940Z,16.98
2023-04-18T03:22:18.840Z,15.70
2023-04-18T03:24:53.978Z,15.25
2023-04-18T03:27:23.174Z,16.17
2023-04-18T03:29:50.117Z,13.60
2023-04-18T03:32:17.238Z,14.60
2023-04-18T03:34:44.376Z,17.08
2023-04-18T03:37:11.256Z,15.23
2023-04-18T03:39:43.631Z,14.60
2023-04-18T03:42:10.688Z,17.55
2023-04-18T03:44:38.028Z,19.50
2023-04-18T03:47:05.016Z,19.80
2023-04-18T03:49:34.786Z,16.80
2023-04-18T03:52:03.298Z,14.57
2023-04-18T03:54:30.146Z,15.25
2023-04-18T03:56:59.347Z,17.40
2023-04-18T03:59:27.306Z,15.15
2023-04-18T04:01:55.900Z,18.25
2023-04-18T04:04:22.780Z,18.75
2023-04-18T04:06:50.811Z,16.38
2023-04-18T04:09:17.643Z,18.00
2023-04-18T04:11:46.243Z,18.08
2023-04-18T04:14:14.820Z,15.25
2023-04-18T04:16:45.257Z,18.60
2023-04-18T04:19:16.154Z,16.98
2023-04-18T04:21:51.517Z,17.75
2023-04-18T04:24:18.567Z,17.15
2023-04-18T04:26:48.693Z,19.80
2023-04-18T04:29:19.480Z,17.55
2023-04-18T04:31:47.804Z,14.25
2023-04-18T04:34:21.673Z,15.48
2023-04-18T04:36:48.923Z,17.70
2023-04-18T04:39:15.621Z,20.95
2023-04-18T04:42:09.664Z,14.40
2023-04-18T04:44:46.489Z,17.52
2023-04-18T04:47:13.492Z,16.40
2023-04-18T04:49:40.227Z,13.75
2023-04-18T04:52:08.150Z,16.92
2023-04-18T04:54:35.446Z,15.27
2023-04-18T04:57:04.542Z,18.25
2023-04-18T04:59:31.391Z,16.48
2023-04-18T05:01:58.315Z,15.50
2023-04-18T05:04:25.972Z,14.38
2023-04-18T05:06:53.334Z,14.15
2023-04-18T05:09:20.395Z,17.13
2023-04-18T05:11:51.692Z,15.95
2023-04-18T05:14:20.849Z,14.55
2023-04-18T05:16:48.901Z,16.85
2023-04-18T05:19:16.175Z,16.33
2023-04-18T05:21:42.810Z,15.10
2023-04-18T05:24:09.804Z,17.73
2023-04-18T05:26:36.970Z,16.95
2023-04-18T05:29:03.700Z,20.80
2023-04-18T05:31:30.835Z,23.30
2023-04-18T05:33:57.615Z,16.65
2023-04-18T05:36:24.407Z,16.35
2023-04-18T05:38:51.653Z,23.42
2023-04-18T05:41:18.552Z,20.65
2023-04-18T05:43:54.209Z,18.58
2023-04-18T05:46:29.047Z,20.35
2023-04-18T05:48:56.905Z,21.42
2023-04-18T05:51:23.735Z,17.33
2023-04-18T05:53:50.689Z,19.25
2023-04-18T05:56:17.431Z,18.38
2023-04-18T05:58:45.656Z,19.75
2023-04-18T06:01:14.185Z,19.83
2023-04-18T06:03:41.669Z,18.08
2023-04-18T06:06:09.919Z,22.55
2023-04-18T06:08:39.386Z,19.65
2023-04-18T06:11:06.294Z,20.77
2023-04-18T06:13:33.034Z,20.00
2023-04-18T06:16:00.839Z,21.02
2023-04-18T06:18:27.629Z,20.35
2023-04-18T06:20:57.133Z,19.52
2023-04-18T06:23:26.455Z,19.02
2023-04-18T06:25:55.670Z,23.55
2023-04-18T06:28:28.987Z,25.10
2023-04-18T06:30:58.189Z,23.80
2023-04-18T06:33:32.490Z,22.02
2023-04-18T06:36:03.300Z,22.50
2023-04-18T06:38:30.929Z,21.05
2023-04-18T06:40:57.872Z,21.35
2023-04-18T06:43:24.804Z,22.63
2023-04-18T06:45:52.026Z,21.30
2023-04-18T06:48:22.665Z,22.35
2023-04-18T06:50:50.277Z,24.65
2023-04-18T06:53:17.312Z,26.27
2023-04-18T06:55:50.552Z,24.35
2023-04-18T06:58:17.931Z,25.00
2023-04-18T07:00:49.962Z,22.45
2023-04-18T07:03:18.519Z,25.63
2023-04-18T07:05:54.249Z,23.63
2023-04-18T07:08:21.245Z,22.75
2023-04-18T07:10:51.259Z,25.38
2023-04-18T07:13:18.138Z,22.13
2023-04-18T07:15:45.810Z,24.63
2023-04-18T07:18:16.140Z,25.52
2023-04-18T07:20:49.768Z,26.38
2023-04-18T07:23:16.686Z,27.98
2023-04-18T07:25:43.646Z,25.92
2023-04-18T07:28:10.728Z,25.90
2023-04-18T07:30:37.676Z,24.67
2023-04-18T07:33:04.622Z,27.33
2023-04-18T07:35:31.576Z,28.00
2023-04-18T07:37:58.553Z,27.08
2023-04-18T07:40:25.604Z,24.40
2023-04-18T07:42:53.413Z,25.05
2023-04-18T07:45:20.400Z,26.45
2023-04-18T07:47:47.130Z,26.00
2023-04-18T07:50:14.104Z,25.55
2023-04-18T07:52:40.885Z,28.00
2023-04-18T07:55:08.053Z,30.48
2023-04-18T07:57:34.794Z,30.02
2023-04-18T08:00:02.060Z,24.45
2023-04-18T08:02:39.932Z,30.10
2023-04-18T08:05:07.568Z,31.73
2023-04-18T08:07:34.710Z,29.50
2023-04-18T08:10:01.671Z,27.67
2023-04-18T08:12:28.629Z,27.42
2023-04-18T08:14:55.430Z,32.17
2023-04-18T08:17:23.455Z,29.77
2023-04-18T08:19:50.935Z,26.75
2023-04-18T08:22:17.866Z,26.30
2023-04-18T08:25:00.963Z,25.90
2023-04-18T08:27:28.416Z,31.00
2023-04-18T08:29:55.758Z,25.70
2023-04-18T08:32:22.873Z,29.48
2023-04-18T08:34:50.069Z,28.30
2023-04-18T08:37:16.769Z,25.73
2023-04-18T08:39:44.835Z,29.45
2023-04-18T08:42:16.089Z,27.30
2023-04-18T08:44:49.126Z,25.50
2023-04-18T08:47:16.338Z,20.20
2023-04-18T08:49:45.447Z,22.90
2023-04-18T08:52:14.554Z,23.35
2023-04-18T08:54:43.074Z,23.25
2023-04-18T08:57:12.601Z,26.50
2023-04-18T08:59:46.706Z,23.17
2023-04-18T09:02:16.384Z,25.42
2023-04-18T09:04:45.205Z,22.55
2023-04-18T09:07:13.699Z,19.75
2023-04-18T09:09:51.866Z,23.70
2023-04-18T09:12:23.452Z,20.13
2023-04-18T09:14:52.245Z,21.27
2023-04-18T09:17:37.697Z,25.45
2023-04-18T09:20:06.272Z,22.88
2023-04-18T09:22:52.333Z,20.63
2023-04-18T09:25:40.148Z,21.20
2023-04-18T09:28:26.874Z,20.80
2023-04-18T09:31:22.725Z,23.08
2023-04-18T09:33:54.597Z,18.98
2023-04-18T09:36:29.065Z,21.70
2023-04-18T09:38:56.871Z,22.17
2023-04-18T09:41:24.324Z,19.13
2023-04-18T09:44:17.136Z,22.75
2023-04-18T09:46:47.484Z,20.70
2023-04-18T09:49:15.648Z,17.55
2023-04-18T09:51:44.273Z,23.00
2023-04-18T09:54:20.575Z,22.67
2023-04-18T09:56:50.595Z,21.20
2023-04-18T09:59:29.346Z,18.67
2023-04-18T10:01:59.228Z,18.23
2023-04-18T10:04:27.807Z,17.05
2023-04-18T10:06:54.906Z,19.25
2023-04-18T10:09:23.053Z,18.77
2023-04-18T10:11:50.147Z,16.75
2023-04-18T10:14:17.894Z,19.88
2023-04-18T10:16:45.677Z,21.08
2023-04-18T10:19:26.323Z,17.50
2023-04-18T10:21:57.200Z,18.23
2023-04-18T10:24:53.805Z,20.38
2023-04-18T10:27:48.443Z,19.40
2023-04-18T10:30:18.880Z,18.52
2023-04-18T10:32:46.767Z,17.98
2023-04-18T10:35:16.388Z,18.08
2023-04-18T10:37:50.944Z,18.90
2023-04-18T10:40:31.535Z,18.33
2023-04-18T10:42:58.938Z,15.35
2023-04-18T10:45:28.465Z,16.25
2023-04-18T10:48:30.312Z,15.27
2023-04-18T10:51:20.772Z,16.15
2023-04-18T10:53:59.569Z,17.23
2023-04-18T10:56:28.890Z,11.88
2023-04-18T10:59:01.226Z,11.70
2023-04-18T11:01:32.528Z,14.73
2023-04-18T11:04:02.749Z,12.63
2023-04-18T11:06:31.285Z,13.45
2023-04-18T11:09:14.411Z,13.40
2023-04-18T11:11:41.851Z,13.82
2023-04-18T11:14:08.895Z,14.27
2023-04-18T11:16:36.349Z,15.13
2023-04-18T11:19:23.527Z,12.65
2023-04-18T11:21:51.427Z,13.20
2023-04-18T11:24:24.733Z,13.48
2023-04-18T11:26:55.530Z,16.13
2023-04-18T11:29:22.633Z,14.63
2023-04-18T11:31:58.264Z,15.40
2023-04-18T11:34:31.070Z,12.63
2023-04-18T11:36:58.942Z,14.10
2023-04-18T11:39:26.263Z,12.00
2023-04-18T11:41:53.146Z,14.15
2023-04-18T11:44:24.682Z,13.05
2023-04-18T11:46:52.336Z,13.63
2023-04-18T11:49:30.301Z,13.93
2023-04-18T11:51:57.833Z,14.65
2023-04-18T11:54:40.396Z,16.05
2023-04-18T11:57:23.073Z,17.85
2023-04-18T12:02:23.108Z,11.35
2023-04-18T12:05:00.057Z,10.88
2023-04-18T12:07:36.073Z,14.15
2023-04-18T12:10:04.850Z,10.45
2023-04-18T12:12:31.907Z,11.90
2023-04-18T12:15:03.906Z,11.27
2023-04-18T12:17:34.550Z,10.90
2023-04-18T12:20:06.586Z,13.25
2023-04-18T12:22:58.201Z,10.98
2023-04-18T12:25:30.770Z,11.30
2023-04-18T12:28:06.822Z,11.93
2023-04-18T12:30:38.935Z,11.05
2023-04-18T12:33:07.043Z,10.48
2023-04-18T12:35:34.046Z,9.73
2023-04-18T12:38:02.431Z,11.30
2023-04-18T12:40:30.079Z,12.30
2023-04-18T12:42:57.063Z,12.20
2023-04-18T12:45:24.430Z,9.35
2023-04-18T12:47:52.056Z,11.95
2023-04-18T12:50:22.200Z,12.27
2023-04-18T12:52:52.698Z,9.55
2023-04-18T12:55:20.161Z,10.55
2023-04-18T12:57:47.102Z,11.23
2023-04-18T13:00:14.615Z,9.55
2023-04-18T13:02:47.073Z,11.10
2023-04-18T13:05:15.699Z,12.20
2023-04-18T13:07:43.135Z,14.60
2023-04-18T13:10:11.866Z,9.43
2023-04-18T13:12:39.851Z,9.35
2023-04-18T13:15:08.099Z,9.68
2023-04-18T13:17:37.899Z,11.10
2023-04-18T13:20:06.621Z,11.57
2023-04-18T13:22:33.864Z,9.75
2023-04-18T13:25:00.774Z,9.57
2023-04-18T13:27:27.519Z,10.43
2023-04-18T13:29:55.023Z,8.80
2023-04-18T13:32:22.385Z,9.77
2023-04-18T13:34:49.467Z,9.10
2023-04-18T13:37:16.418Z,8.75
2023-04-18T13:39:43.416Z,9.45
2023-04-18T13:42:10.157Z,9.15
2023-04-18T13:44:37.833Z,10.45
2023-04-18T13:47:06.009Z,9.15
2023-04-18T13:49:38.681Z,10.75
2023-04-18T13:52:05.513Z,7.65
2023-04-18T13:54:32.977Z,8.48
2023-04-18T13:57:03.922Z,6.63
2023-04-18T13:59:32.008Z,7.28
2023-04-18T14:01:59.125Z,6.32
2023-04-18T14:04:27.220Z,6.40
2023-04-18T14:06:55.504Z,6.65
2023-04-18T14:09:22.224Z,5.97
2023-04-18T14:11:49.118Z,6.25
2023-04-18T14:14:16.243Z,7.88
2023-04-18T14:16:43.313Z,5.50
2023-04-18T14:19:12.843Z,5.60
2023-04-18T14:21:39.782Z,5.50
2023-04-18T14:24:08.135Z,7.18
2023-04-18T14:26:34.845Z,6.50
2023-04-18T14:29:01.784Z,8.40
2023-04-18T14:31:28.480Z,4.78
2023-04-18T14:33:55.237Z,5.07
2023-04-18T14:36:21.976Z,7.63
2023-04-18T14:38:49.374Z,6.10
2023-04-18T14:41:16.747Z,7.30
2023-04-18T14:43:43.534Z,6.20
2023-04-18T14:46:16.650Z,5.05
2023-04-18T14:48:47.162Z,6.63
2023-04-18T14:51:16.159Z,6.90
2023-04-18T14:53:43.120Z,5.28
2023-04-18T14:56:09.907Z,7.07
2023-04-18T14:58:36.754Z,5.25
2023-04-18T15:01:04.249Z,4.95
2023-04-18T15:03:31.172Z,5.78
2023-04-18T15:05:58.032Z,7.70
2023-04-18T15:08:24.880Z,5.35
2023-04-18T15:10:51.697Z,4.43
2023-04-18T15:13:18.370Z,5.18
2023-04-18T15:15:54.809Z,8.63
2023-04-18T15:18:21.737Z,8.60
2023-04-18T15:20:48.539Z,9.40
2023-04-18T15:23:15.854Z,7.07
2023-04-18T15:25:45.697Z,7.13
2023-04-18T15:28:13.962Z,10.40
2023-04-18T15:30:40.873Z,8.43
2023-04-18T15:33:07.962Z,9.73
2023-04-18T15:35:35.002Z,8.60
2023-04-18T15:38:01.749Z,7.50
2023-04-18T15:40:28.718Z,10.35
2023-04-18T15:42:57.668Z,8.10
2023-04-18T15:45:24.395Z,6.78
2023-04-18T15:47:51.500Z,8.55
2023-04-18T15:50:18.449Z,7.90
2023-04-18T15:52:45.284Z,11.38
2023-04-18T15:55:13.151Z,9.27
2023-04-18T15:57:41.362Z,8.68
2023-04-18T16:00:15.707Z,8.43
2023-04-18T16:02:44.339Z,12.73
2023-04-18T16:05:15.295Z,8.68
2023-04-18T16:07:42.659Z,8.35
2023-04-18T16:10:10.826Z,8.63
2023-04-18T16:12:38.535Z,9.48
2023-04-18T16:15:07.202Z,9.48
2023-04-18T16:17:34.465Z,8.57
2023-04-18T16:20:01.307Z,11.40
2023-04-18T16:22:28.127Z,8.00
2023-04-18T16:24:55.725Z,10.68
2023-04-18T16:27:22.523Z,7.65
2023-04-18T16:29:49.616Z,9.63
2023-04-18T16:32:16.292Z,7.03
2023-04-18T16:34:42.941Z,10.02
2023-04-18T16:37:09.665Z,9.57
2023-04-18T16:39:36.443Z,7.57
2023-04-18T16:42:03.799Z,9.18
2023-04-18T16:44:30.661Z,6.57
2023-04-18T16:46:57.502Z,9.27
2023-04-18T16:49:24.635Z,7.20
2023-04-18T16:51:51.301Z,7.38
2023-04-18T16:54:18.026Z,6.07
2023-04-18T16:56:44.845Z,9.27
2023-04-18T16:59:11.616Z,5.72
2023-04-18T17:01:38.701Z,7.13
2023-04-18T17:04:05.996Z,6.68
2023-04-18T17:06:33.132Z,9.07
2023-04-18T17:08:59.976Z,5.95
2023-04-18T17:11:26.772Z,9.13
2023-04-18T17:13:53.716Z,6.85
2023-04-18T17:16:20.533Z,7.55
2023-04-18T17:18:47.605Z,4.95
2023-04-18T17:21:14.424Z,5.28
2023-04-18T17:23:42.511Z,6.32
2023-04-18T17:26:09.889Z,5.82
2023-04-18T17:28:36.721Z,5.35
2023-04-18T17:31:03.984Z,5.97
2023-04-18T17:33:31.367Z,7.00
2023-04-18T17:35:58.417Z,10.20
2023-04-18T17:38:25.619Z,4.45
2023-04-18T17:41:02.413Z,8.68
2023-04-18T17:43:29.376Z,5.20
2023-04-18T17:46:00.861Z,6.28
2023-04-18T17:48:27.587Z,4.85
2023-04-18T17:50:54.473Z,6.50
2023-04-18T17:53:21.340Z,5.93
2023-04-18T17:55:51.270Z,6.03
2023-04-18T17:58:19.741Z,6.43
2023-04-18T18:00:46.475Z,6.47
2023-04-18T18:03:14.539Z,6.25
2023-04-18T18:05:42.131Z,7.88
2023-04-18T18:08:08.878Z,6.05
2023-04-18T18:10:35.667Z,5.80
2023-04-18T18:13:02.550Z,5.85
2023-04-18T18:15:29.705Z,7.45
2023-04-18T18:17:56.415Z,7.13
2023-04-18T18:20:23.234Z,6.50
2023-04-18T18:22:50.771Z,6.20
2023-04-18T18:25:17.698Z,7.72
2023-04-18T18:27:44.479Z,7.20
2023-04-18T18:30:11.313Z,7.75
2023-04-18T18:32:37.988Z,8.38
2023-04-18T18:35:06.064Z,6.95
2023-04-18T18:37:33.242Z,7.10
2023-04-18T18:40:02.782Z,6.40
2023-04-18T18:42:29.449Z,7.28
2023-04-18T18:44:56.153Z,6.32
2023-04-18T18:47:22.885Z,5.43
2023-04-18T18:49:49.793Z,6.35
2023-04-18T18:52:16.821Z,5.40
2023-04-18T18:54:43.516Z,5.97
2023-04-18T18:57:10.248Z,6.53
2023-04-18T18:59:36.993Z,6.63
2023-04-18T19:02:04.256Z,5.47
2023-04-18T19:04:31.174Z,6.05
2023-04-18T19:06:57.987Z,6.43
2023-04-18T19:09:24.925Z,7.80
2023-04-18T19:11:51.675Z,7.35
2023-04-18T19:14:18.346Z,8.93
2023-04-18T19:16:45.113Z,7.95
2023-04-18T19:19:12.188Z,6.90
2023-04-18T19:21:39.700Z,5.55
2023-04-18T19:24:06.733Z,8.02
2023-04-18T19:26:33.574Z,8.23
2023-04-18T19:29:00.376Z,8.20
2023-04-18T19:31:27.160Z,8.65
2023-04-18T19:33:53.934Z,6.60
2023-04-18T19:36:22.470Z,6.80
2023-04-18T19:38:49.194Z,7.80
2023-04-18T19:41:15.966Z,8.63
2023-04-18T19:43:42.726Z,6.82
2023-04-18T19:46:09.652Z,7.13
2023-04-18T19:48:37.704Z,8.32
2023-04-18T19:51:04.916Z,9.40
2023-04-18T19:53:31.704Z,7.20
2023-04-18T19:55:58.516Z,6.88
2023-04-18T19:58:39.663Z,8.40
2023-04-18T20:01:07.438Z,6.88
2023-04-18T20:03:34.529Z,7.60
2023-04-18T20:06:01.592Z,7.47
2023-04-18T20:08:29.304Z,8.30
2023-04-18T20:10:56.522Z,7.47
2023-04-18T20:13:23.455Z,6.82
2023-04-18T20:15:50.344Z,7.97
2023-04-18T20:18:17.249Z,7.63
2023-04-18T20:20:44.240Z,8.57
2023-04-18T20:23:11.656Z,6.57
2023-04-18T20:25:38.346Z,6.80
2023-04-18T20:28:05.283Z,9.20
2023-04-18T20:30:32.286Z,6.45
2023-04-18T20:32:59.051Z,10.95
2023-04-18T20:35:27.830Z,9.13
2023-04-18T20:37:55.148Z,8.77
2023-04-18T20:40:22.273Z,7.68
2023-04-18T20:42:48.939Z,8.80
2023-04-18T20:45:15.739Z,7.78
2023-04-18T20:47:43.756Z,8.27
2023-04-18T20:50:11.043Z,8.65
2023-04-18T20:52:37.810Z,8.80
2023-04-18T20:55:04.744Z,10.98
2023-04-18T20:57:31.553Z,9.18
2023-04-18T20:59:59.524Z,9.07
2023-04-18T21:02:26.467Z,9.85
2023-04-18T21:04:53.462Z,7.95
2023-04-18T21:07:20.362Z,10.50
2023-04-18T21:09:47.356Z,11.05
2023-04-18T21:12:14.386Z,10.30
2023-04-18T21:14:41.110Z,12.13
2023-04-18T21:17:09.677Z,10.68
2023-04-18T21:19:36.843Z,11.77
2023-04-18T21:22:04.262Z,10.95
2023-04-18T21:24:31.032Z,17.13
2023-04-18T21:26:57.734Z,12.85
2023-04-18T21:29:24.436Z,12.45
2023-04-18T21:31:51.529Z,13.68
2023-04-18T21:34:18.424Z,16.63
2023-04-18T21:36:45.470Z,13.00
2023-04-18T21:39:12.356Z,15.65
2023-04-18T21:41:39.120Z,13.77
2023-04-18T21:44:05.995Z,14.57
2023-04-18T21:46:32.866Z,14.23
2023-04-18T21:48:59.622Z,14.27
2023-04-18T21:51:27.226Z,18.88
2023-04-18T21:53:54.094Z,20.42
2023-04-18T21:56:20.801Z,16.55
2023-04-18T21:58:47.702Z,17.60
2023-04-18T22:01:14.558Z,20.10
2023-04-18T22:03:41.719Z,16.38
2023-04-18T22:06:08.798Z,17.45
2023-04-18T22:08:36.154Z,19.00
2023-04-18T22:11:04.519Z,19.73
2023-04-18T22:13:33.029Z,15.88
2023-04-18T22:16:03.469Z,17.73
2023-04-18T22:18:33.995Z,14.90
2023-04-18T22:21:03.262Z,17.13
2023-04-18T22:23:30.890Z,16.55
2023-04-18T22:25:57.596Z,13.50
2023-04-18T22:28:24.451Z,18.42
2023-04-18T22:30:51.385Z,15.90
2023-04-18T22:33:18.398Z,15.65
2023-04-18T22:35:47.018Z,17.52
2023-04-18T22:38:13.847Z,18.42
2023-04-18T22:40:40.508Z,17.58
2023-04-18T22:43:07.212Z,16.95
2023-04-18T22:45:34.770Z,18.10
2023-04-18T22:48:01.541Z,16.17
2023-04-18T22:50:30.046Z,14.40
2023-04-18T22:52:57.261Z,17.17
2023-04-18T22:55:24.033Z,16.20
2023-04-18T22:57:50.764Z,12.95
2023-04-18T23:00:17.709Z,16.70
2023-04-18T23:02:44.654Z,15.52
2023-04-18T23:05:11.680Z,19.17
2023-04-18T23:07:38.908Z,17.25
2023-04-18T23:10:07.228Z,18.42
2023-04-18T23:12:34.042Z,20.73
2023-04-18T23:15:00.974Z,19.00
2023-04-18T23:17:27.732Z,18.42
2023-04-18T23:19:54.694Z,16.80
2023-04-18T23:22:23.942Z,18.25
2023-04-18T23:24:50.800Z,13.82
2023-04-18T23:27:18.213Z,15.45
2023-04-18T23:29:47.405Z,15.95
2023-04-18T23:32:14.527Z,15.27
2023-04-18T23:34:41.982Z,15.20
2023-04-18T23:37:09.683Z,14.77
2023-04-18T23:39:36.647Z,13.85
2023-04-18T23:42:03.592Z,15.32
2023-04-18T23:44:31.603Z,13.98
2023-04-18T23:46:58.919Z,15.18
2023-04-18T23:49:28.044Z,16.63
2023-04-18T23:51:54.969Z,14.82
2023-04-18T23:54:21.698Z,15.57
2023-04-18T23:56:48.374Z,14.25
2023-04-18T23:59:15.050Z,14.38
